createdAt,value
2023-02-19T00:01:52.511Z,13.07
2023-02-19T00:04:22.542Z,12.83
2023-02-19T00:06:51.315Z,11.80
2023-02-19T00:09:20.562Z,12.27
2023-02-19T00:11:49.126Z,12.53
2023-02-19T00:14:20.702Z,12.83
2023-02-19T00:16:49.507Z,12.99
2023-02-19T00:19:20.253Z,13.23
2023-02-19T00:21:51.234Z,12.75
2023-02-19T00:24:21.994Z,11.51
2023-02-19T00:26:50.202Z,12.27
2023-02-19T00:29:20.805Z,13.02
2023-02-19T00:31:49.150Z,13.02
2023-02-19T00:34:17.197Z,13.17
2023-02-19T00:36:45.459Z,12.49
2023-02-19T00:39:16.110Z,11.25
2023-02-19T00:41:45.683Z,12.13
2023-02-19T00:44:14.675Z,13.01
2023-02-19T00:46:47.510Z,12.67
2023-02-19T00:49:21.084Z,11.17
2023-02-19T00:51:51.505Z,10.72
2023-02-19T00:54:20.466Z,11.62
2023-02-19T00:56:49.003Z,12.36
2023-02-19T00:59:17.434Z,12.30
2023-02-19T01:01:45.734Z,12.89
2023-02-19T01:04:14.243Z,12.65
2023-02-19T01:06:42.632Z,11.11
2023-02-19T01:09:10.548Z,10.39
2023-02-19T01:11:39.015Z,11.33
2023-02-19T01:14:07.112Z,12.29
2023-02-19T01:16:35.788Z,12.85
2023-02-19T01:19:04.039Z,13.30
2023-02-19T01:21:32.002Z,13.72
2023-02-19T01:23:59.991Z,11.97
2023-02-19T01:26:30.858Z,11.45
2023-02-19T01:29:02.891Z,12.74
2023-02-19T01:31:31.079Z,13.27
2023-02-19T01:34:02.138Z,13.00
2023-02-19T01:36:33.468Z,12.99
2023-02-19T01:39:05.151Z,12.60
2023-02-19T01:41:38.198Z,12.49
2023-02-19T01:44:29.204Z,12.39
2023-02-19T01:46:58.810Z,12.30
2023-02-19T01:49:59.650Z,11.78
2023-02-19T01:52:32.709Z,11.75
2023-02-19T01:55:03.179Z,11.94
2023-02-19T01:57:36.097Z,12.28
2023-02-19T02:00:08.354Z,12.32
2023-02-19T02:02:47.214Z,12.18
2023-02-19T02:05:45.429Z,12.15
2023-02-19T02:08:34.012Z,11.66
2023-02-19T02:11:02.504Z,11.81
2023-02-19T02:13:33.157Z,11.84
2023-02-19T02:16:34.960Z,11.96
2023-02-19T02:19:24.456Z,11.53
2023-02-19T02:22:13.713Z,12.03
2023-02-19T02:25:25.262Z,12.06
2023-02-19T02:28:26.147Z,12.12
2023-02-19T02:31:08.546Z,12.63
2023-02-19T02:33:43.294Z,12.74
2023-02-19T02:36:15.411Z,12.91
2023-02-19T02:38:47.372Z,12.93
2023-02-19T02:41:16.679Z,12.81
2023-02-19T02:43:45.235Z,13.14
2023-02-19T02:46:20.158Z,13.41
2023-02-19T02:48:55.531Z,13.39
2023-02-19T02:51:26.865Z,13.17
2023-02-19T02:54:37.937Z,13.10
2023-02-19T02:57:14.964Z,13.07
2023-02-19T02:59:50.286Z,13.16
2023-02-19T03:02:28.696Z,13.34
2023-02-19T03:05:32.115Z,13.35
2023-02-19T03:08:17.361Z,11.32
2023-02-19T03:10:51.859Z,11.16
2023-02-19T03:13:50.028Z,12.31
2023-02-19T03:16:45.536Z,13.00
2023-02-19T03:19:19.628Z,13.00
2023-02-19T03:22:14.408Z,13.15
2023-02-19T03:25:23.940Z,13.30
2023-02-19T03:27:54.423Z,13.26
2023-02-19T03:30:25.622Z,13.31
2023-02-19T03:32:58.264Z,13.30
2023-02-19T03:35:30.941Z,13.04
2023-02-19T03:38:26.382Z,13.22
2023-02-19T03:41:03.712Z,13.23
2023-02-19T03:43:50.862Z,13.05
2023-02-19T03:46:23.379Z,13.24
2023-02-19T03:49:02.117Z,13.24
2023-02-19T03:51:56.223Z,13.07
2023-02-19T03:54:41.339Z,13.12
2023-02-19T03:57:35.248Z,13.06
2023-02-19T04:00:11.000Z,12.99
2023-02-19T04:03:02.658Z,12.60
2023-02-19T04:05:35.803Z,12.49
2023-02-19T04:08:12.005Z,12.41
2023-02-19T04:10:46.088Z,12.73
2023-02-19T04:13:31.332Z,12.40
2023-02-19T04:16:06.923Z,12.31
2023-02-19T04:18:39.671Z,12.75
2023-02-19T04:21:09.704Z,12.95
2023-02-19T04:23:42.396Z,13.15
2023-02-19T04:26:12.636Z,12.89
2023-02-19T04:28:43.224Z,12.61
2023-02-19T04:31:12.098Z,12.64
2023-02-19T04:33:40.351Z,12.21
2023-02-19T04:36:11.204Z,11.93
2023-02-19T04:38:39.243Z,12.26
2023-02-19T04:41:07.191Z,12.38
2023-02-19T04:43:35.165Z,12.51
2023-02-19T04:46:03.664Z,12.57
2023-02-19T04:48:31.690Z,12.33
2023-02-19T04:50:59.588Z,11.86
2023-02-19T04:53:27.603Z,11.63
2023-02-19T04:55:55.529Z,11.55
2023-02-19T04:58:23.480Z,11.83
2023-02-19T05:00:53.078Z,12.03
2023-02-19T05:03:21.027Z,12.16
2023-02-19T05:05:48.983Z,11.80
2023-02-19T05:08:16.942Z,12.34
2023-02-19T05:10:44.938Z,12.81
2023-02-19T05:13:12.866Z,13.03
2023-02-19T05:15:40.793Z,13.19
2023-02-19T05:18:08.748Z,13.32
2023-02-19T05:20:37.353Z,13.32
2023-02-19T05:23:05.220Z,12.77
2023-02-19T05:25:33.203Z,11.40
2023-02-19T05:28:17.083Z,11.72
2023-02-19T05:30:52.917Z,12.54
2023-02-19T05:33:25.048Z,13.16
2023-02-19T05:35:55.387Z,13.46
2023-02-19T05:38:24.379Z,13.75
2023-02-19T05:40:52.302Z,12.41
2023-02-19T05:43:20.200Z,11.04
2023-02-19T05:45:48.493Z,11.76
2023-02-19T05:48:16.435Z,12.43
2023-02-19T05:50:44.389Z,12.72
2023-02-19T05:53:14.959Z,13.19
2023-02-19T05:55:42.836Z,13.21
2023-02-19T05:58:10.808Z,13.44
2023-02-19T06:00:38.694Z,13.60
2023-02-19T06:03:06.566Z,13.67
2023-02-19T06:05:34.468Z,13.70
2023-02-19T06:08:02.387Z,12.95
2023-02-19T06:10:30.384Z,11.68
2023-02-19T06:12:58.276Z,11.96
2023-02-19T06:15:26.176Z,12.52
2023-02-19T06:17:54.086Z,12.84
2023-02-19T06:20:22.016Z,12.71
2023-02-19T06:22:50.960Z,12.51
2023-02-19T06:25:19.645Z,12.85
2023-02-19T06:27:47.975Z,12.77
2023-02-19T06:30:15.948Z,12.77
2023-02-19T06:32:43.864Z,12.57
2023-02-19T06:35:11.700Z,12.98
2023-02-19T06:37:39.591Z,12.68
2023-02-19T06:40:08.180Z,13.07
2023-02-19T06:42:36.118Z,12.92
2023-02-19T06:45:04.177Z,13.41
2023-02-19T06:47:33.050Z,13.26
2023-02-19T06:50:01.124Z,13.48
2023-02-19T06:52:29.022Z,13.55
2023-02-19T06:54:57.011Z,13.19
2023-02-19T06:57:25.052Z,13.39
2023-02-19T06:59:52.997Z,13.51
2023-02-19T07:02:20.938Z,13.52
2023-02-19T07:04:48.785Z,11.97
2023-02-19T07:07:16.771Z,12.64
2023-02-19T07:09:45.272Z,12.94
2023-02-19T07:12:13.232Z,12.77
2023-02-19T07:14:41.129Z,13.22
2023-02-19T07:17:09.040Z,13.22
2023-02-19T07:19:36.971Z,13.63
2023-02-19T07:22:04.960Z,12.90
2023-02-19T07:24:32.884Z,11.83
2023-02-19T07:27:00.912Z,12.30
2023-02-19T07:29:28.787Z,12.74
2023-02-19T07:31:56.730Z,13.09
2023-02-19T07:34:24.709Z,13.63
2023-02-19T07:36:52.651Z,13.73
2023-02-19T07:39:20.591Z,13.60
2023-02-19T07:41:48.568Z,13.21
2023-02-19T07:44:26.681Z,13.07
2023-02-19T07:46:54.576Z,13.22
2023-02-19T07:49:22.461Z,13.44
2023-02-19T07:51:50.462Z,13.01
2023-02-19T07:54:18.476Z,12.95
2023-02-19T07:56:46.381Z,12.75
2023-02-19T07:59:15.909Z,12.90
2023-02-19T08:02:02.465Z,13.16
2023-02-19T08:04:30.296Z,13.12
2023-02-19T08:06:58.195Z,13.37
2023-02-19T08:09:26.063Z,13.20
2023-02-19T08:12:13.742Z,13.10
2023-02-19T08:14:41.786Z,13.28
2023-02-19T08:17:09.732Z,13.19
2023-02-19T08:19:37.793Z,13.34
2023-02-19T08:22:05.953Z,13.14
2023-02-19T08:24:34.016Z,13.31
2023-02-19T08:27:01.958Z,13.48
2023-02-19T08:29:29.831Z,13.22
2023-02-19T08:31:57.873Z,13.66
2023-02-19T08:34:25.777Z,13.46
2023-02-19T08:36:53.652Z,13.72
2023-02-19T08:39:21.792Z,14.17
2023-02-19T08:41:49.733Z,14.05
2023-02-19T08:44:17.665Z,13.45
2023-02-19T08:46:45.681Z,12.18
2023-02-19T08:49:13.601Z,12.35
2023-02-19T08:51:41.509Z,13.25
2023-02-19T08:54:09.444Z,13.56
2023-02-19T08:56:37.319Z,13.76
2023-02-19T08:59:05.151Z,14.01
2023-02-19T09:01:33.141Z,13.96
2023-02-19T09:04:01.132Z,13.76
2023-02-19T09:06:29.049Z,13.79
2023-02-19T09:08:56.949Z,13.50
2023-02-19T09:11:25.734Z,13.67
2023-02-19T09:13:56.859Z,13.44
2023-02-19T09:16:24.905Z,12.90
2023-02-19T09:18:52.893Z,13.23
2023-02-19T09:21:20.854Z,12.88
2023-02-19T09:23:48.841Z,12.79
2023-02-19T09:26:16.844Z,13.06
2023-02-19T09:28:45.010Z,12.05
2023-02-19T09:31:16.371Z,11.20
2023-02-19T09:33:46.486Z,11.77
2023-02-19T09:36:15.936Z,12.45
2023-02-19T09:38:44.314Z,13.05
2023-02-19T09:41:22.727Z,13.11
2023-02-19T09:43:50.950Z,13.61
2023-02-19T09:46:37.165Z,13.23
2023-02-19T09:49:11.791Z,11.60
2023-02-19T09:51:44.629Z,11.24
2023-02-19T09:54:22.539Z,12.44
2023-02-19T09:56:52.140Z,13.46
2023-02-19T09:59:24.914Z,13.84
2023-02-19T10:02:02.259Z,13.58
2023-02-19T10:04:30.292Z,11.71
2023-02-19T10:07:03.842Z,12.09
2023-02-19T10:09:31.953Z,12.92
2023-02-19T10:12:00.547Z,13.26
2023-02-19T10:14:36.887Z,12.99
2023-02-19T10:17:06.629Z,11.36
2023-02-19T10:19:36.150Z,10.98
2023-02-19T10:22:04.984Z,11.48
2023-02-19T10:24:33.005Z,11.15
2023-02-19T10:27:00.948Z,11.37
2023-02-19T10:29:28.939Z,11.53
2023-02-19T10:32:13.421Z,11.23
2023-02-19T10:34:41.374Z,11.27
2023-02-19T10:37:14.539Z,11.40
2023-02-19T10:39:48.960Z,11.39
2023-02-19T10:42:18.147Z,10.97
2023-02-19T10:44:51.141Z,10.28
2023-02-19T10:47:23.880Z,10.23
2023-02-19T10:49:53.200Z,10.31
2023-02-19T10:52:32.195Z,10.44
2023-02-19T10:55:21.687Z,10.28
2023-02-19T10:57:50.650Z,10.04
2023-02-19T11:00:24.349Z,10.17
2023-02-19T11:03:20.047Z,9.76
2023-02-19T11:06:03.290Z,9.89
2023-02-19T11:08:45.588Z,10.43
2023-02-19T11:11:42.880Z,10.07
2023-02-19T11:14:24.212Z,10.40
2023-02-19T11:16:56.555Z,10.87
2023-02-19T11:19:36.961Z,10.24
2023-02-19T11:22:19.039Z,9.78
2023-02-19T11:24:55.464Z,9.47
2023-02-19T11:27:25.293Z,9.35
2023-02-19T11:29:53.423Z,9.78
2023-02-19T11:32:26.351Z,10.08
2023-02-19T11:35:15.120Z,10.67
2023-02-19T11:38:00.052Z,10.92
2023-02-19T11:40:44.074Z,10.54
2023-02-19T11:43:47.017Z,9.77
2023-02-19T11:46:24.185Z,10.27
2023-02-19T11:48:59.067Z,9.90
2023-02-19T11:51:52.749Z,9.39
2023-02-19T11:54:39.325Z,10.05
2023-02-19T11:57:31.462Z,9.47
2023-02-19T12:00:11.416Z,9.88
2023-02-19T12:03:04.402Z,9.64
2023-02-19T12:06:02.053Z,10.40
2023-02-19T12:08:39.175Z,9.36
2023-02-19T12:11:36.622Z,8.45
2023-02-19T12:14:25.676Z,9.15
2023-02-19T12:20:41.793Z,10.37
2023-02-19T12:23:09.690Z,8.44
2023-02-19T12:25:52.553Z,8.19
2023-02-19T12:28:29.589Z,8.82
2023-02-19T12:31:16.582Z,9.53
2023-02-19T12:34:06.036Z,9.81
2023-02-19T12:36:56.915Z,9.89
2023-02-19T12:39:39.983Z,10.27
2023-02-19T12:42:38.412Z,8.53
2023-02-19T12:45:21.633Z,8.91
2023-02-19T12:48:39.555Z,9.78
2023-02-19T12:51:18.185Z,9.85
2023-02-19T12:53:56.238Z,10.21
2023-02-19T12:56:31.071Z,9.00
2023-02-19T12:59:04.552Z,8.79
2023-02-19T13:01:44.393Z,9.58
2023-02-19T13:04:36.410Z,9.39
2023-02-19T13:07:17.465Z,10.27
2023-02-19T13:09:56.022Z,9.58
2023-02-19T13:12:29.451Z,7.76
2023-02-19T13:15:25.455Z,8.29
2023-02-19T13:17:58.341Z,8.90
2023-02-19T13:20:39.015Z,9.63
2023-02-19T13:23:52.670Z,10.19
2023-02-19T13:26:42.174Z,9.07
2023-02-19T13:29:29.200Z,8.58
2023-02-19T13:32:18.786Z,9.27
2023-02-19T13:35:06.924Z,9.87
2023-02-19T13:37:35.746Z,8.12
2023-02-19T13:40:17.558Z,8.51
2023-02-19T13:42:58.365Z,9.37
2023-02-19T13:45:43.442Z,9.62
2023-02-19T13:48:32.480Z,8.15
2023-02-19T13:51:24.842Z,7.35
2023-02-19T13:53:55.758Z,8.85
2023-02-19T13:56:31.449Z,8.79
2023-02-19T13:59:12.739Z,8.36
2023-02-19T14:01:49.749Z,8.71
2023-02-19T14:04:25.050Z,8.27
2023-02-19T14:07:05.108Z,8.05
2023-02-19T14:09:45.298Z,9.39
2023-02-19T14:12:15.503Z,7.73
2023-02-19T14:14:51.769Z,8.32
2023-02-19T14:17:29.432Z,8.99
2023-02-19T14:20:08.720Z,9.00
2023-02-19T14:22:50.839Z,9.53
2023-02-19T14:25:21.568Z,8.87
2023-02-19T14:27:52.602Z,7.30
2023-02-19T14:30:22.961Z,7.85
2023-02-19T14:33:02.756Z,8.93
2023-02-19T14:35:45.214Z,8.76
2023-02-19T14:38:38.914Z,7.51
2023-02-19T14:41:10.747Z,7.14
2023-02-19T14:43:39.890Z,8.31
2023-02-19T14:46:14.968Z,7.68
2023-02-19T14:48:46.546Z,6.91
2023-02-19T14:51:36.999Z,8.00
2023-02-19T14:54:19.063Z,8.75
2023-02-19T14:56:51.981Z,7.93
2023-02-19T14:59:19.822Z,6.71
2023-02-19T15:02:02.108Z,6.20
2023-02-19T15:04:37.227Z,7.74
2023-02-19T15:07:08.774Z,8.50
2023-02-19T15:12:56.738Z,6.52
2023-02-19T15:15:29.350Z,7.57
2023-02-19T15:17:59.188Z,7.38
2023-02-19T15:20:31.319Z,6.40
2023-02-19T15:23:00.822Z,6.81
2023-02-19T15:25:38.723Z,8.55
2023-02-19T15:28:25.349Z,7.58
2023-02-19T15:30:59.463Z,6.29
2023-02-19T15:33:28.276Z,7.43
2023-02-19T15:36:00.605Z,8.51
2023-02-19T15:38:29.662Z,7.44
2023-02-19T15:40:58.700Z,6.37
2023-02-19T15:43:45.403Z,6.14
2023-02-19T15:46:22.812Z,7.43
2023-02-19T15:48:50.722Z,8.15
2023-02-19T15:51:28.119Z,6.97
2023-02-19T15:54:08.451Z,6.21
2023-02-19T15:56:40.438Z,7.57
2023-02-19T15:59:33.168Z,8.55
2023-02-19T16:02:02.346Z,7.14
2023-02-19T16:04:30.967Z,6.05
2023-02-19T16:07:01.362Z,6.07
2023-02-19T16:09:39.412Z,7.55
2023-02-19T16:12:24.245Z,8.55
2023-02-19T16:14:52.181Z,7.26
2023-02-19T16:17:28.174Z,6.03
2023-02-19T16:20:03.827Z,5.82
2023-02-19T16:25:42.124Z,8.67
2023-02-19T16:28:25.548Z,7.09
2023-02-19T16:31:08.309Z,6.11
2023-02-19T16:33:42.539Z,7.65
2023-02-19T16:36:38.036Z,8.76
2023-02-19T16:39:08.553Z,6.56
2023-02-19T16:41:39.574Z,5.80
2023-02-19T16:44:32.568Z,7.00
2023-02-19T16:47:05.055Z,7.32
2023-02-19T16:49:34.118Z,6.42
2023-02-19T16:52:05.212Z,5.31
2023-02-19T16:54:33.743Z,6.24
2023-02-19T16:57:01.656Z,7.10
2023-02-19T16:59:29.578Z,6.29
2023-02-19T17:01:57.519Z,5.31
2023-02-19T17:04:25.548Z,5.42
2023-02-19T17:06:53.447Z,7.40
2023-02-19T17:09:23.012Z,7.14
2023-02-19T17:11:51.029Z,5.83
2023-02-19T17:14:19.457Z,4.97
2023-02-19T17:16:47.437Z,5.69
2023-02-19T17:19:18.546Z,6.63
2023-02-19T17:21:47.163Z,6.20
2023-02-19T17:24:15.334Z,5.31
2023-02-19T17:26:43.340Z,4.95
2023-02-19T17:29:15.227Z,6.60
2023-02-19T17:31:43.549Z,6.93
2023-02-19T17:34:11.789Z,6.02
2023-02-19T17:39:25.094Z,5.67
2023-02-19T17:41:53.064Z,7.10
2023-02-19T17:44:21.058Z,7.05
2023-02-19T17:46:49.893Z,5.83
2023-02-19T17:49:17.921Z,4.87
2023-02-19T17:51:46.259Z,5.19
2023-02-19T17:54:14.125Z,6.46
2023-02-19T17:56:43.710Z,6.03
2023-02-19T17:59:12.341Z,5.03
2023-02-19T18:01:40.345Z,4.58
2023-02-19T18:04:08.499Z,5.70
2023-02-19T18:06:36.504Z,6.56
2023-02-19T18:09:04.483Z,5.53
2023-02-19T18:12:28.555Z,4.63
2023-02-19T18:14:57.356Z,5.00
2023-02-19T18:17:26.065Z,6.92
2023-02-19T18:20:47.368Z,7.05
2023-02-19T18:23:15.492Z,5.43
2023-02-19T18:25:43.505Z,4.50
2023-02-19T18:28:11.413Z,4.76
2023-02-19T18:30:39.539Z,6.21
2023-02-19T18:33:07.764Z,6.99
2023-02-19T18:35:35.732Z,6.18
2023-02-19T18:38:03.855Z,5.07
2023-02-19T18:40:31.778Z,4.57
2023-02-19T18:42:59.857Z,5.96
2023-02-19T18:45:29.752Z,7.07
2023-02-19T18:47:57.789Z,6.04
2023-02-19T18:50:25.665Z,5.04
2023-02-19T18:52:53.688Z,4.80
2023-02-19T18:55:21.643Z,6.35
2023-02-19T18:57:49.585Z,6.87
2023-02-19T19:00:20.832Z,6.24
2023-02-19T19:02:50.488Z,5.07
2023-02-19T19:05:23.971Z,4.58
2023-02-19T19:07:57.752Z,6.31
2023-02-19T19:10:26.391Z,7.43
2023-02-19T19:12:55.015Z,6.54
2023-02-19T19:15:23.981Z,5.59
2023-02-19T19:17:52.469Z,4.71
2023-02-19T19:20:30.748Z,5.20
2023-02-19T19:22:58.763Z,6.90
2023-02-19T19:25:26.745Z,7.29
2023-02-19T19:27:56.796Z,6.18
2023-02-19T19:30:24.927Z,4.90
2023-02-19T19:32:53.868Z,4.66
2023-02-19T19:35:22.761Z,6.26
2023-02-19T19:37:50.709Z,7.27
2023-02-19T19:40:19.037Z,6.04
2023-02-19T19:42:47.323Z,4.77
2023-02-19T19:45:16.020Z,4.38
2023-02-19T19:47:44.025Z,6.16
2023-02-19T19:50:13.745Z,7.13
2023-02-19T19:52:41.689Z,5.77
2023-02-19T19:55:09.893Z,4.65
2023-02-19T19:57:40.585Z,4.21
2023-02-19T20:00:12.862Z,5.92
2023-02-19T20:02:40.998Z,7.08
2023-02-19T20:05:09.231Z,6.01
2023-02-19T20:07:37.318Z,4.75
2023-02-19T20:10:07.688Z,3.92
2023-02-19T20:12:36.265Z,4.92
2023-02-19T20:15:04.860Z,6.62
2023-02-19T20:17:32.841Z,6.96
2023-02-19T20:20:00.980Z,5.58
2023-02-19T20:22:28.934Z,4.35
2023-02-19T20:24:57.043Z,3.58
2023-02-19T20:27:25.143Z,3.44
2023-02-19T20:29:53.038Z,4.82
2023-02-19T20:32:21.141Z,6.17
2023-02-19T20:34:49.243Z,7.04
2023-02-19T20:37:17.572Z,5.94
2023-02-19T20:39:51.275Z,4.67
2023-02-19T20:42:24.974Z,3.66
2023-02-19T20:44:57.597Z,3.61
2023-02-19T20:47:31.361Z,5.33
2023-02-19T20:50:06.294Z,6.69
2023-02-19T20:52:40.881Z,6.06
2023-02-19T20:55:13.389Z,4.50
2023-02-19T20:57:46.014Z,3.82
2023-02-19T21:00:19.590Z,5.34
2023-02-19T21:02:55.144Z,6.98
2023-02-19T21:05:31.259Z,6.43
2023-02-19T21:08:07.287Z,4.73
2023-02-19T21:10:41.326Z,3.65
2023-02-19T21:13:17.437Z,3.82
2023-02-19T21:15:54.012Z,5.79
2023-02-19T21:18:22.026Z,6.82
2023-02-19T21:20:57.583Z,5.79
2023-02-19T21:23:31.123Z,4.24
2023-02-19T21:26:02.325Z,3.91
2023-02-19T21:28:30.266Z,5.59
2023-02-19T21:30:58.209Z,7.24
2023-02-19T21:33:30.702Z,6.32
2023-02-19T21:36:04.468Z,4.62
2023-02-19T21:38:42.402Z,4.26
2023-02-19T21:41:13.002Z,5.75
2023-02-19T21:43:40.923Z,6.93
2023-02-19T21:46:19.827Z,5.78
2023-02-19T21:48:48.955Z,4.34
2023-02-19T21:51:41.504Z,3.79
2023-02-19T21:54:17.447Z,5.67
2023-02-19T21:56:45.833Z,6.79
2023-02-19T21:59:13.754Z,5.43
2023-02-19T22:01:43.336Z,4.11
2023-02-19T22:04:16.360Z,4.91
2023-02-19T22:06:45.023Z,6.33
2023-02-19T22:09:14.948Z,6.84
2023-02-19T22:11:43.008Z,5.47
2023-02-19T22:14:10.963Z,4.13
2023-02-19T22:16:38.982Z,3.64
2023-02-19T22:19:06.977Z,5.31
2023-02-19T22:21:34.986Z,6.87
2023-02-19T22:24:03.476Z,6.49
2023-02-19T22:26:34.243Z,4.88
2023-02-19T22:29:07.532Z,3.52
2023-02-19T22:31:35.844Z,3.95
2023-02-19T22:34:04.805Z,5.68
2023-02-19T22:36:37.445Z,6.74
2023-02-19T22:39:07.704Z,6.11
2023-02-19T22:41:35.662Z,4.43
2023-02-19T22:44:03.755Z,3.85
2023-02-19T22:46:31.806Z,5.45
2023-02-19T22:49:05.592Z,6.76
2023-02-19T22:51:35.604Z,6.89
2023-02-19T22:54:03.777Z,5.27
2023-02-19T22:56:31.935Z,3.97
2023-02-19T22:58:59.809Z,4.01
2023-02-19T23:01:27.752Z,5.67
2023-02-19T23:03:58.252Z,6.57
2023-02-19T23:06:28.686Z,5.31
2023-02-19T23:08:58.923Z,3.91
2023-02-19T23:11:31.001Z,3.56
2023-02-19T23:13:59.658Z,5.08
2023-02-19T23:16:28.372Z,6.29
2023-02-19T23:18:56.315Z,5.61
2023-02-19T23:21:24.195Z,4.22
2023-02-19T23:23:52.974Z,3.80
2023-02-19T23:26:21.038Z,5.32
2023-02-19T23:28:50.588Z,6.58
2023-02-19T23:31:18.940Z,6.93
2023-02-19T23:33:47.194Z,5.57
2023-02-19T23:36:15.683Z,4.19
2023-02-19T23:38:45.429Z,3.64
2023-02-19T23:41:16.292Z,5.36
2023-02-19T23:43:44.851Z,6.56
2023-02-19T23:46:17.955Z,6.28
2023-02-19T23:48:46.428Z,4.73
2023-02-19T23:51:14.771Z,4.16
2023-02-19T23:53:42.643Z,5.62
2023-02-19T23:56:10.838Z,6.62
2023-02-19T23:58:44.543Z,6.65
